sensor_id;sensor_type;location;lat;lon;timestamp;temperature;humidity
11597;DHT22;5854;48.072;16.286;2022-08-19T00:22:33;25.70;43.50
11597;DHT22;5854;48.072;16.286;2022-08-19T05:39:40;24.20;45.00
11597;DHT22;5854;48.072;16.286;2022-08-19T05:42:10;24.30;46.10
11597;DHT22;5854;48.072;16.286;2022-08-19T05:44:40;24.30;45.40
11597;DHT22;5854;48.072;16.286;2022-08-19T05:47:11;24.30;45.80
11597;DHT22;5854;48.072;16.286;2022-08-19T05:49:52;24.20;45.70
11597;DHT22;5854;48.072;16.286;2022-08-19T05:52:20;24.40;44.90
11597;DHT22;5854;48.072;16.286;2022-08-19T05:54:48;24.30;46.90
11597;DHT22;5854;48.072;16.286;2022-08-19T05:57:16;24.30;46.70
11597;DHT22;5854;48.072;16.286;2022-08-19T05:59:44;24.30;48.60
11597;DHT22;5854;48.072;16.286;2022-08-19T06:02:13;24.30;46.50
11597;DHT22;5854;48.072;16.286;2022-08-19T06:04:40;24.50;46.70
11597;DHT22;5854;48.072;16.286;2022-08-19T06:07:09;24.50;46.50
11597;DHT22;5854;48.072;16.286;2022-08-19T06:09:36;24.50;46.90
11597;DHT22;5854;48.072;16.286;2022-08-19T06:12:10;24.60;46.30
11597;DHT22;5854;48.072;16.286;2022-08-19T06:14:38;24.70;45.70
11597;DHT22;5854;48.072;16.286;2022-08-19T06:17:08;24.70;45.20
11597;DHT22;5854;48.072;16.286;2022-08-19T06:19:35;24.70;45.40
11597;DHT22;5854;48.072;16.286;2022-08-19T06:22:03;24.80;46.60
11597;DHT22;5854;48.072;16.286;2022-08-19T06:24:35;24.80;45.50
11597;DHT22;5854;48.072;16.286;2022-08-19T06:27:04;24.80;45.00
11597;DHT22;5854;48.072;16.286;2022-08-19T06:29:31;24.90;45.90
11597;DHT22;5854;48.072;16.286;2022-08-19T06:32:01;24.80;46.60
11597;DHT22;5854;48.072;16.286;2022-08-19T06:34:31;24.90;44.70
11597;DHT22;5854;48.072;16.286;2022-08-19T06:37:00;24.90;48.10
11597;DHT22;5854;48.072;16.286;2022-08-19T06:39:31;24.90;47.10
11597;DHT22;5854;48.072;16.286;2022-08-19T06:42:02;24.90;46.10
11597;DHT22;5854;48.072;16.286;2022-08-19T06:44:34;24.80;47.50
11597;DHT22;5854;48.072;16.286;2022-08-19T06:47:05;24.90;47.40
11597;DHT22;5854;48.072;16.286;2022-08-19T06:49:34;25.00;45.00
11597;DHT22;5854;48.072;16.286;2022-08-19T06:54:36;25.20;48.50
11597;DHT22;5854;48.072;16.286;2022-08-19T06:57:06;25.10;45.70
11597;DHT22;5854;48.072;16.286;2022-08-19T06:59:34;25.20;46.90
11597;DHT22;5854;48.072;16.286;2022-08-19T07:02:04;25.20;48.70
11597;DHT22;5854;48.072;16.286;2022-08-19T07:04:33;25.30;48.70
11597;DHT22;5854;48.072;16.286;2022-08-19T07:07:08;25.40;48.70
11597;DHT22;5854;48.072;16.286;2022-08-19T07:10:03;25.40;49.20
11597;DHT22;5854;48.072;16.286;2022-08-19T07:12:33;25.50;48.20
11597;DHT22;5854;48.072;16.286;2022-08-19T07:15:00;25.50;50.10
11597;DHT22;5854;48.072;16.286;2022-08-19T07:17:28;25.60;46.90
11597;DHT22;5854;48.072;16.286;2022-08-19T07:19:55;25.60;47.60
11597;DHT22;5854;48.072;16.286;2022-08-19T07:22:22;25.80;47.70
11597;DHT22;5854;48.072;16.286;2022-08-19T07:24:49;26.00;48.70
11597;DHT22;5854;48.072;16.286;2022-08-19T07:27:17;26.10;47.00
11597;DHT22;5854;48.072;16.286;2022-08-19T07:29:48;26.30;48.00
11597;DHT22;5854;48.072;16.286;2022-08-19T07:32:16;26.60;47.20
11597;DHT22;5854;48.072;16.286;2022-08-19T07:34:43;26.80;46.80
11597;DHT22;5854;48.072;16.286;2022-08-19T07:37:14;26.80;46.50
11597;DHT22;5854;48.072;16.286;2022-08-19T07:39:48;26.90;46.60
11597;DHT22;5854;48.072;16.286;2022-08-19T07:42:17;27.80;46.00
11597;DHT22;5854;48.072;16.286;2022-08-19T07:44:48;28.50;42.90
11597;DHT22;5854;48.072;16.286;2022-08-19T07:47:15;28.80;42.60
11597;DHT22;5854;48.072;16.286;2022-08-19T07:49:44;28.10;44.00
11597;DHT22;5854;48.072;16.286;2022-08-19T07:57:15;29.10;42.60
11597;DHT22;5854;48.072;16.286;2022-08-19T07:59:42;28.60;42.70
11597;DHT22;5854;48.072;16.286;2022-08-19T08:02:11;28.40;43.30
11597;DHT22;5854;48.072;16.286;2022-08-19T08:04:38;29.20;42.40
11597;DHT22;5854;48.072;16.286;2022-08-19T08:07:23;29.80;40.90
11597;DHT22;5854;48.072;16.286;2022-08-19T08:10:08;29.50;41.40
11597;DHT22;5854;48.072;16.286;2022-08-19T08:12:39;29.10;41.80
11597;DHT22;5854;48.072;16.286;2022-08-19T08:15:09;28.90;41.90
11597;DHT22;5854;48.072;16.286;2022-08-19T08:17:43;28.70;41.90
11597;DHT22;5854;48.072;16.286;2022-08-19T08:20:11;28.60;43.80
11597;DHT22;5854;48.072;16.286;2022-08-19T08:22:43;28.40;42.80
11597;DHT22;5854;48.072;16.286;2022-08-19T08:25:40;28.50;43.20
11597;DHT22;5854;48.072;16.286;2022-08-19T08:28:07;28.20;42.90
11597;DHT22;5854;48.072;16.286;2022-08-19T08:30:34;28.00;43.80
11597;DHT22;5854;48.072;16.286;2022-08-19T08:33:04;27.90;42.30
11597;DHT22;5854;48.072;16.286;2022-08-19T08:35:31;27.90;44.40
11597;DHT22;5854;48.072;16.286;2022-08-19T08:37:59;28.00;42.90
11597;DHT22;5854;48.072;16.286;2022-08-19T08:40:29;28.10;43.00
11597;DHT22;5854;48.072;16.286;2022-08-19T08:43:05;28.20;44.50
11597;DHT22;5854;48.072;16.286;2022-08-19T08:45:36;28.40;42.20
11597;DHT22;5854;48.072;16.286;2022-08-19T08:48:18;28.40;41.60
11597;DHT22;5854;48.072;16.286;2022-08-19T08:50:48;28.30;42.10
11597;DHT22;5854;48.072;16.286;2022-08-19T08:53:19;28.20;43.20
11597;DHT22;5854;48.072;16.286;2022-08-19T08:55:48;28.30;43.50
11597;DHT22;5854;48.072;16.286;2022-08-19T08:58:19;28.20;42.30
11597;DHT22;5854;48.072;16.286;2022-08-19T09:00:51;28.20;43.10
11597;DHT22;5854;48.072;16.286;2022-08-19T09:03:22;28.20;43.20
11597;DHT22;5854;48.072;16.286;2022-08-19T09:05:57;28.10;42.60
11597;DHT22;5854;48.072;16.286;2022-08-19T09:08:37;28.10;43.50
11597;DHT22;5854;48.072;16.286;2022-08-19T09:11:10;28.10;42.30
11597;DHT22;5854;48.072;16.286;2022-08-19T09:13:45;28.40;41.20
11597;DHT22;5854;48.072;16.286;2022-08-19T09:16:20;28.50;40.80
11597;DHT22;5854;48.072;16.286;2022-08-19T09:18:55;28.60;42.00
11597;DHT22;5854;48.072;16.286;2022-08-19T09:21:25;28.60;40.50
11597;DHT22;5854;48.072;16.286;2022-08-19T09:23:53;28.80;41.20
11597;DHT22;5854;48.072;16.286;2022-08-19T09:26:22;28.80;40.50
11597;DHT22;5854;48.072;16.286;2022-08-19T09:28:51;28.90;40.90
11597;DHT22;5854;48.072;16.286;2022-08-19T09:31:21;28.90;39.90
11597;DHT22;5854;48.072;16.286;2022-08-19T09:33:55;28.90;40.30
11597;DHT22;5854;48.072;16.286;2022-08-19T09:36:23;29.00;39.10
11597;DHT22;5854;48.072;16.286;2022-08-19T09:38:52;29.10;39.90
11597;DHT22;5854;48.072;16.286;2022-08-19T09:41:21;29.20;40.30
11597;DHT22;5854;48.072;16.286;2022-08-19T09:43:51;29.20;39.80
11597;DHT22;5854;48.072;16.286;2022-08-19T09:46:21;29.10;40.70
11597;DHT22;5854;48.072;16.286;2022-08-19T09:48:50;29.40;40.00
11597;DHT22;5854;48.072;16.286;2022-08-19T09:51:20;29.40;39.20
11597;DHT22;5854;48.072;16.286;2022-08-19T09:53:50;29.50;39.70
11597;DHT22;5854;48.072;16.286;2022-08-19T09:56:21;29.60;39.30
11597;DHT22;5854;48.072;16.286;2022-08-19T09:58:49;29.70;38.40
11597;DHT22;5854;48.072;16.286;2022-08-19T10:01:18;29.70;38.70
11597;DHT22;5854;48.072;16.286;2022-08-19T10:03:48;29.60;38.90
11597;DHT22;5854;48.072;16.286;2022-08-19T10:06:17;29.70;38.30
11597;DHT22;5854;48.072;16.286;2022-08-19T10:08:46;29.70;38.80
11597;DHT22;5854;48.072;16.286;2022-08-19T10:11:14;29.30;38.30
11597;DHT22;5854;48.072;16.286;2022-08-19T10:13:43;29.20;39.10
11597;DHT22;5854;48.072;16.286;2022-08-19T10:16:14;29.20;39.60
11597;DHT22;5854;48.072;16.286;2022-08-19T10:18:43;28.90;40.00
11597;DHT22;5854;48.072;16.286;2022-08-19T10:21:12;28.80;42.30
11597;DHT22;5854;48.072;16.286;2022-08-19T10:23:44;28.80;42.20
11597;DHT22;5854;48.072;16.286;2022-08-19T10:26:16;28.50;43.00
11597;DHT22;5854;48.072;16.286;2022-08-19T10:28:46;28.40;46.90
11597;DHT22;5854;48.072;16.286;2022-08-19T10:31:15;28.20;47.30
11597;DHT22;5854;48.072;16.286;2022-08-19T10:33:45;28.10;47.40
11597;DHT22;5854;48.072;16.286;2022-08-19T10:36:15;28.00;49.70
11597;DHT22;5854;48.072;16.286;2022-08-19T10:38:46;27.60;47.60
11597;DHT22;5854;48.072;16.286;2022-08-19T10:41:17;27.40;47.40
11597;DHT22;5854;48.072;16.286;2022-08-19T10:43:50;27.40;45.60
11597;DHT22;5854;48.072;16.286;2022-08-19T10:46:21;27.60;45.30
11597;DHT22;5854;48.072;16.286;2022-08-19T10:48:49;27.30;55.30
11597;DHT22;5854;48.072;16.286;2022-08-19T10:51:17;26.90;50.20
11597;DHT22;5854;48.072;16.286;2022-08-19T10:54:04;27.00;52.50
11597;DHT22;5854;48.072;16.286;2022-08-19T10:56:32;27.20;51.20
11597;DHT22;5854;48.072;16.286;2022-08-19T10:59:18;27.40;49.40
11597;DHT22;5854;48.072;16.286;2022-08-19T11:01:48;27.60;51.60
11597;DHT22;5854;48.072;16.286;2022-08-19T11:04:16;27.60;52.30
11597;DHT22;5854;48.072;16.286;2022-08-19T11:06:44;27.60;48.80
11597;DHT22;5854;48.072;16.286;2022-08-19T11:09:15;27.30;53.10
11597;DHT22;5854;48.072;16.286;2022-08-19T11:11:43;27.20;53.30
11597;DHT22;5854;48.072;16.286;2022-08-19T11:14:14;27.30;59.70
11597;DHT22;5854;48.072;16.286;2022-08-19T11:16:45;27.30;54.30
11597;DHT22;5854;48.072;16.286;2022-08-19T11:19:12;27.30;59.10
11597;DHT22;5854;48.072;16.286;2022-08-19T11:21:44;27.40;54.10
11597;DHT22;5854;48.072;16.286;2022-08-19T11:24:16;27.40;57.10
11597;DHT22;5854;48.072;16.286;2022-08-19T11:26:46;27.60;57.60
11597;DHT22;5854;48.072;16.286;2022-08-19T11:29:16;27.80;53.30
11597;DHT22;5854;48.072;16.286;2022-08-19T11:31:47;27.90;57.50
11597;DHT22;5854;48.072;16.286;2022-08-19T11:34:17;28.00;54.50
11597;DHT22;5854;48.072;16.286;2022-08-19T11:36:47;27.90;58.70
11597;DHT22;5854;48.072;16.286;2022-08-19T11:39:18;27.60;56.70
11597;DHT22;5854;48.072;16.286;2022-08-19T11:44:17;27.00;53.30
11597;DHT22;5854;48.072;16.286;2022-08-19T11:46:45;27.30;53.70
11597;DHT22;5854;48.072;16.286;2022-08-19T11:49:16;27.50;51.50
11597;DHT22;5854;48.072;16.286;2022-08-19T11:51:46;27.60;49.20
11597;DHT22;5854;48.072;16.286;2022-08-19T11:54:18;27.80;48.30
11597;DHT22;5854;48.072;16.286;2022-08-19T11:56:45;27.90;48.50
11597;DHT22;5854;48.072;16.286;2022-08-19T11:59:14;27.90;50.40
11597;DHT22;5854;48.072;16.286;2022-08-19T12:01:42;27.80;48.50
11597;DHT22;5854;48.072;16.286;2022-08-19T12:04:09;28.00;49.10
11597;DHT22;5854;48.072;16.286;2022-08-19T12:06:38;28.10;50.10
11597;DHT22;5854;48.072;16.286;2022-08-19T12:09:08;28.30;45.90
11597;DHT22;5854;48.072;16.286;2022-08-19T12:11:38;28.40;45.50
11597;DHT22;5854;48.072;16.286;2022-08-19T12:14:09;28.50;45.30
11597;DHT22;5854;48.072;16.286;2022-08-19T12:16:37;28.40;43.80
11597;DHT22;5854;48.072;16.286;2022-08-19T12:19:05;28.40;47.10
11597;DHT22;5854;48.072;16.286;2022-08-19T12:21:34;28.20;42.90
11597;DHT22;5854;48.072;16.286;2022-08-19T12:24:04;28.30;48.30
11597;DHT22;5854;48.072;16.286;2022-08-19T12:26:32;28.50;44.50
11597;DHT22;5854;48.072;16.286;2022-08-19T12:29:01;28.50;46.40
11597;DHT22;5854;48.072;16.286;2022-08-19T12:31:29;28.40;44.20
11597;DHT22;5854;48.072;16.286;2022-08-19T12:33:57;28.40;45.60
11597;DHT22;5854;48.072;16.286;2022-08-19T12:36:25;28.30;44.40
11597;DHT22;5854;48.072;16.286;2022-08-19T12:38:52;28.30;46.30
11597;DHT22;5854;48.072;16.286;2022-08-19T12:41:20;28.20;44.90
11597;DHT22;5854;48.072;16.286;2022-08-19T12:43:47;28.00;45.20
11597;DHT22;5854;48.072;16.286;2022-08-19T12:46:18;28.00;47.70
11597;DHT22;5854;48.072;16.286;2022-08-19T12:48:46;28.00;46.30
11597;DHT22;5854;48.072;16.286;2022-08-19T12:51:16;28.00;47.60
11597;DHT22;5854;48.072;16.286;2022-08-19T12:53:45;27.70;48.40
11597;DHT22;5854;48.072;16.286;2022-08-19T12:56:13;27.60;49.70
11597;DHT22;5854;48.072;16.286;2022-08-19T12:58:42;27.50;51.20
11597;DHT22;5854;48.072;16.286;2022-08-19T13:01:11;27.30;51.40
11597;DHT22;5854;48.072;16.286;2022-08-19T13:03:40;27.40;51.10
11597;DHT22;5854;48.072;16.286;2022-08-19T13:06:09;27.40;50.20
11597;DHT22;5854;48.072;16.286;2022-08-19T13:08:36;27.40;51.20
11597;DHT22;5854;48.072;16.286;2022-08-19T13:11:10;27.40;52.40
11597;DHT22;5854;48.072;16.286;2022-08-19T13:13:39;27.30;51.70
11597;DHT22;5854;48.072;16.286;2022-08-19T13:16:08;27.10;52.00
11597;DHT22;5854;48.072;16.286;2022-08-19T13:18:37;27.20;51.00
11597;DHT22;5854;48.072;16.286;2022-08-19T13:21:07;27.10;52.10
11597;DHT22;5854;48.072;16.286;2022-08-19T13:23:35;27.10;52.00
11597;DHT22;5854;48.072;16.286;2022-08-19T13:26:05;27.00;51.80
11597;DHT22;5854;48.072;16.286;2022-08-19T13:28:34;27.10;52.30
11597;DHT22;5854;48.072;16.286;2022-08-19T13:31:16;27.30;52.40
11597;DHT22;5854;48.072;16.286;2022-08-19T13:34:01;27.00;52.40
11597;DHT22;5854;48.072;16.286;2022-08-19T13:36:32;27.00;52.70
11597;DHT22;5854;48.072;16.286;2022-08-19T13:38:59;27.00;52.70
11597;DHT22;5854;48.072;16.286;2022-08-19T13:41:27;26.80;52.70
11597;DHT22;5854;48.072;16.286;2022-08-19T13:43:54;27.00;53.10
11597;DHT22;5854;48.072;16.286;2022-08-19T13:46:21;27.00;52.70
11597;DHT22;5854;48.072;16.286;2022-08-19T13:48:49;26.80;52.80
11597;DHT22;5854;48.072;16.286;2022-08-19T13:51:17;26.80;54.00
11597;DHT22;5854;48.072;16.286;2022-08-19T13:53:46;27.00;53.00
11597;DHT22;5854;48.072;16.286;2022-08-19T13:56:17;27.00;52.70
11597;DHT22;5854;48.072;16.286;2022-08-19T14:01:21;26.90;51.90
11597;DHT22;5854;48.072;16.286;2022-08-19T14:03:49;27.10;52.00
11597;DHT22;5854;48.072;16.286;2022-08-19T14:06:16;27.50;51.90
11597;DHT22;5854;48.072;16.286;2022-08-19T14:08:44;27.90;50.20
11597;DHT22;5854;48.072;16.286;2022-08-19T14:11:12;27.70;48.80
11597;DHT22;5854;48.072;16.286;2022-08-19T14:13:40;27.50;47.80
11597;DHT22;5854;48.072;16.286;2022-08-19T14:16:09;27.80;48.90
11597;DHT22;5854;48.072;16.286;2022-08-19T14:18:38;28.00;49.40
11597;DHT22;5854;48.072;16.286;2022-08-19T14:21:05;28.10;45.20
11597;DHT22;5854;48.072;16.286;2022-08-19T14:23:33;28.40;47.00
11597;DHT22;5854;48.072;16.286;2022-08-19T14:26:07;28.40;43.70
11597;DHT22;5854;48.072;16.286;2022-08-19T14:28:35;28.40;45.00
11597;DHT22;5854;48.072;16.286;2022-08-19T14:31:02;28.50;43.60
11597;DHT22;5854;48.072;16.286;2022-08-19T14:33:30;28.60;41.90
11597;DHT22;5854;48.072;16.286;2022-08-19T14:35:57;28.30;42.20
11597;DHT22;5854;48.072;16.286;2022-08-19T14:38:26;28.40;41.60
11597;DHT22;5854;48.072;16.286;2022-08-19T14:41:11;28.30;38.90
11597;DHT22;5854;48.072;16.286;2022-08-19T14:43:41;28.30;39.70
11597;DHT22;5854;48.072;16.286;2022-08-19T14:46:12;28.40;41.20
11597;DHT22;5854;48.072;16.286;2022-08-19T14:48:41;28.20;42.10
11597;DHT22;5854;48.072;16.286;2022-08-19T14:51:08;27.90;39.50
11597;DHT22;5854;48.072;16.286;2022-08-19T14:53:36;27.70;40.10
11597;DHT22;5854;48.072;16.286;2022-08-19T14:56:08;28.00;46.30
11597;DHT22;5854;48.072;16.286;2022-08-19T14:58:37;28.20;44.60
11597;DHT22;5854;48.072;16.286;2022-08-19T15:01:05;28.30;39.60
11597;DHT22;5854;48.072;16.286;2022-08-19T15:03:33;28.20;41.60
11597;DHT22;5854;48.072;16.286;2022-08-19T15:06:01;28.30;40.00
11597;DHT22;5854;48.072;16.286;2022-08-19T15:08:32;28.10;41.20
11597;DHT22;5854;48.072;16.286;2022-08-19T15:11:01;27.90;39.10
11597;DHT22;5854;48.072;16.286;2022-08-19T15:13:29;27.70;40.00
11597;DHT22;5854;48.072;16.286;2022-08-19T15:15:57;27.70;40.30
11597;DHT22;5854;48.072;16.286;2022-08-19T15:18:25;27.70;39.60
11597;DHT22;5854;48.072;16.286;2022-08-19T15:20:52;27.70;42.80
11597;DHT22;5854;48.072;16.286;2022-08-19T15:23:21;27.70;44.90
11597;DHT22;5854;48.072;16.286;2022-08-19T15:25:48;27.70;40.50
11597;DHT22;5854;48.072;16.286;2022-08-19T15:28:19;27.70;43.90
11597;DHT22;5854;48.072;16.286;2022-08-19T15:30:46;27.90;41.70
11597;DHT22;5854;48.072;16.286;2022-08-19T15:33:15;27.70;40.20
11597;DHT22;5854;48.072;16.286;2022-08-19T15:35:43;27.60;42.20
11597;DHT22;5854;48.072;16.286;2022-08-19T15:38:13;27.50;41.10
11597;DHT22;5854;48.072;16.286;2022-08-19T15:40:42;27.40;41.10
11597;DHT22;5854;48.072;16.286;2022-08-19T15:43:10;27.40;42.10
11597;DHT22;5854;48.072;16.286;2022-08-19T15:45:37;27.40;41.40
11597;DHT22;5854;48.072;16.286;2022-08-19T15:48:04;27.40;43.20
11597;DHT22;5854;48.072;16.286;2022-08-19T15:50:33;27.50;41.60
11597;DHT22;5854;48.072;16.286;2022-08-19T15:53:03;27.60;43.00
11597;DHT22;5854;48.072;16.286;2022-08-19T15:55:35;27.60;42.60
11597;DHT22;5854;48.072;16.286;2022-08-19T15:58:05;27.60;42.30
11597;DHT22;5854;48.072;16.286;2022-08-19T16:00:51;27.70;42.80
11597;DHT22;5854;48.072;16.286;2022-08-19T16:03:35;27.70;42.10
11597;DHT22;5854;48.072;16.286;2022-08-19T16:06:39;27.70;42.40
11597;DHT22;5854;48.072;16.286;2022-08-19T16:09:14;27.50;43.70
11597;DHT22;5854;48.072;16.286;2022-08-19T16:11:42;27.40;43.60
11597;DHT22;5854;48.072;16.286;2022-08-19T16:14:12;27.60;44.70
11597;DHT22;5854;48.072;16.286;2022-08-19T16:16:40;27.80;43.30
11597;DHT22;5854;48.072;16.286;2022-08-19T16:19:11;27.80;43.40
11597;DHT22;5854;48.072;16.286;2022-08-19T16:21:42;27.70;42.70
11597;DHT22;5854;48.072;16.286;2022-08-19T16:24:12;27.70;42.60
11597;DHT22;5854;48.072;16.286;2022-08-19T16:26:42;27.30;43.00
11597;DHT22;5854;48.072;16.286;2022-08-19T16:29:10;27.40;43.50
11597;DHT22;5854;48.072;16.286;2022-08-19T16:31:37;27.40;43.40
11597;DHT22;5854;48.072;16.286;2022-08-19T16:34:05;27.40;44.00
11597;DHT22;5854;48.072;16.286;2022-08-19T16:36:33;27.40;46.80
11597;DHT22;5854;48.072;16.286;2022-08-19T16:39:01;27.50;43.50
11597;DHT22;5854;48.072;16.286;2022-08-19T16:41:30;27.30;45.30
11597;DHT22;5854;48.072;16.286;2022-08-19T16:43:57;27.20;46.70
11597;DHT22;5854;48.072;16.286;2022-08-19T16:46:24;27.40;46.50
11597;DHT22;5854;48.072;16.286;2022-08-19T16:48:52;27.50;44.60
11597;DHT22;5854;48.072;16.286;2022-08-19T16:51:19;27.60;46.30
11597;DHT22;5854;48.072;16.286;2022-08-19T16:53:47;27.60;46.40
11597;DHT22;5854;48.072;16.286;2022-08-19T16:56:18;27.50;46.60
11597;DHT22;5854;48.072;16.286;2022-08-19T16:58:46;27.60;45.50
11597;DHT22;5854;48.072;16.286;2022-08-19T17:01:14;27.60;46.70
11597;DHT22;5854;48.072;16.286;2022-08-19T17:03:41;27.60;45.80
11597;DHT22;5854;48.072;16.286;2022-08-19T17:06:11;27.70;46.40
11597;DHT22;5854;48.072;16.286;2022-08-19T17:08:39;27.70;46.90
11597;DHT22;5854;48.072;16.286;2022-08-19T17:11:07;27.60;46.80
11597;DHT22;5854;48.072;16.286;2022-08-19T17:13:36;27.60;47.60
11597;DHT22;5854;48.072;16.286;2022-08-19T17:16:04;27.60;47.10
11597;DHT22;5854;48.072;16.286;2022-08-19T17:18:31;27.50;47.10
11597;DHT22;5854;48.072;16.286;2022-08-19T17:20:59;27.50;47.40
11597;DHT22;5854;48.072;16.286;2022-08-19T17:23:27;27.40;47.30
11597;DHT22;5854;48.072;16.286;2022-08-19T17:25:55;27.50;47.30
11597;DHT22;5854;48.072;16.286;2022-08-19T17:28:24;27.40;47.60
11597;DHT22;5854;48.072;16.286;2022-08-19T17:30:55;27.30;47.60
11597;DHT22;5854;48.072;16.286;2022-08-19T17:33:22;27.30;48.80
11597;DHT22;5854;48.072;16.286;2022-08-19T17:35:50;27.20;48.30
11597;DHT22;5854;48.072;16.286;2022-08-19T17:38:19;27.10;48.40
11597;DHT22;5854;48.072;16.286;2022-08-19T17:40:48;27.20;48.80
11597;DHT22;5854;48.072;16.286;2022-08-19T17:43:17;27.00;48.80
11597;DHT22;5854;48.072;16.286;2022-08-19T17:45:45;27.00;48.90
11597;DHT22;5854;48.072;16.286;2022-08-19T17:48:13;26.70;48.80
11597;DHT22;5854;48.072;16.286;2022-08-19T17:50:40;26.60;49.20
11597;DHT22;5854;48.072;16.286;2022-08-19T17:53:08;26.50;49.10
11597;DHT22;5854;48.072;16.286;2022-08-19T17:55:35;26.50;49.40
11597;DHT22;5854;48.072;16.286;2022-08-19T17:58:03;26.50;49.40
11597;DHT22;5854;48.072;16.286;2022-08-19T18:00:31;26.60;49.20
11597;DHT22;5854;48.072;16.286;2022-08-19T18:03:01;26.60;49.00
11597;DHT22;5854;48.072;16.286;2022-08-19T18:05:34;26.60;48.50
11597;DHT22;5854;48.072;16.286;2022-08-19T18:08:05;26.60;48.80
11597;DHT22;5854;48.072;16.286;2022-08-19T18:10:36;26.60;48.80
11597;DHT22;5854;48.072;16.286;2022-08-19T18:13:04;26.50;49.20
11597;DHT22;5854;48.072;16.286;2022-08-19T18:15:32;26.60;48.90
11597;DHT22;5854;48.072;16.286;2022-08-19T18:17:59;26.60;47.70
11597;DHT22;5854;48.072;16.286;2022-08-19T18:20:26;26.50;49.40
11597;DHT22;5854;48.072;16.286;2022-08-19T18:22:55;26.40;49.10
11597;DHT22;5854;48.072;16.286;2022-08-19T18:25:25;26.40;48.90
11597;DHT22;5854;48.072;16.286;2022-08-19T18:27:55;26.30;49.90
11597;DHT22;5854;48.072;16.286;2022-08-19T18:30:24;26.30;49.30
11597;DHT22;5854;48.072;16.286;2022-08-19T18:32:53;26.30;50.10
11597;DHT22;5854;48.072;16.286;2022-08-19T18:35:23;26.40;49.90
11597;DHT22;5854;48.072;16.286;2022-08-19T18:37:57;26.40;48.60
11597;DHT22;5854;48.072;16.286;2022-08-19T18:40:27;26.30;49.40
11597;DHT22;5854;48.072;16.286;2022-08-19T18:43:12;26.20;50.20
11597;DHT22;5854;48.072;16.286;2022-08-19T18:45:57;26.20;50.70
11597;DHT22;5854;48.072;16.286;2022-08-19T18:48:42;26.10;50.00
11597;DHT22;5854;48.072;16.286;2022-08-19T18:51:26;26.00;50.00
11597;DHT22;5854;48.072;16.286;2022-08-19T18:53:58;25.90;49.40
11597;DHT22;5854;48.072;16.286;2022-08-19T18:56:28;25.90;49.70
11597;DHT22;5854;48.072;16.286;2022-08-19T18:58:57;26.00;51.40
11597;DHT22;5854;48.072;16.286;2022-08-19T19:01:27;26.00;51.20
11597;DHT22;5854;48.072;16.286;2022-08-19T19:03:59;25.90;51.40
11597;DHT22;5854;48.072;16.286;2022-08-19T19:06:30;25.80;51.90
11597;DHT22;5854;48.072;16.286;2022-08-19T19:09:04;25.80;51.90
11597;DHT22;5854;48.072;16.286;2022-08-19T19:11:33;25.80;52.60
11597;DHT22;5854;48.072;16.286;2022-08-19T19:14:03;25.80;52.80
11597;DHT22;5854;48.072;16.286;2022-08-19T19:16:35;25.80;52.10
11597;DHT22;5854;48.072;16.286;2022-08-19T19:19:04;25.70;54.00
11597;DHT22;5854;48.072;16.286;2022-08-19T19:21:33;25.40;53.60
11597;DHT22;5854;48.072;16.286;2022-08-19T19:24:02;25.40;53.90
11597;DHT22;5854;48.072;16.286;2022-08-19T19:26:33;25.40;53.50
11597;DHT22;5854;48.072;16.286;2022-08-19T19:29:02;25.60;55.50
11597;DHT22;5854;48.072;16.286;2022-08-19T19:31:29;25.60;53.10
11597;DHT22;5854;48.072;16.286;2022-08-19T19:33:59;25.70;52.60
11597;DHT22;5854;48.072;16.286;2022-08-19T19:36:26;25.70;53.20
11597;DHT22;5854;48.072;16.286;2022-08-19T19:38:54;25.60;55.40
11597;DHT22;5854;48.072;16.286;2022-08-19T19:41:42;25.40;53.80
11597;DHT22;5854;48.072;16.286;2022-08-19T19:44:09;25.60;53.10
11597;DHT22;5854;48.072;16.286;2022-08-19T19:46:38;25.70;52.70
11597;DHT22;5854;48.072;16.286;2022-08-19T19:49:09;25.60;54.10
11597;DHT22;5854;48.072;16.286;2022-08-19T19:51:42;25.50;55.90
11597;DHT22;5854;48.072;16.286;2022-08-19T19:54:12;25.20;57.10
11597;DHT22;5854;48.072;16.286;2022-08-19T19:56:41;25.10;57.70
11597;DHT22;5854;48.072;16.286;2022-08-19T19:59:09;25.00;57.50
11597;DHT22;5854;48.072;16.286;2022-08-19T20:01:36;25.10;56.70
11597;DHT22;5854;48.072;16.286;2022-08-19T20:04:09;24.90;59.00
11597;DHT22;5854;48.072;16.286;2022-08-19T20:11:53;25.00;57.60
11597;DHT22;5854;48.072;16.286;2022-08-19T20:14:29;25.10;56.00
11597;DHT22;5854;48.072;16.286;2022-08-19T20:17:01;25.10;57.80
11597;DHT22;5854;48.072;16.286;2022-08-19T20:19:31;25.00;59.20
11597;DHT22;5854;48.072;16.286;2022-08-19T20:22:01;24.90;58.80
11597;DHT22;5854;48.072;16.286;2022-08-19T20:24:30;25.00;60.40
11597;DHT22;5854;48.072;16.286;2022-08-19T20:27:02;24.90;61.50
11597;DHT22;5854;48.072;16.286;2022-08-19T20:29:32;24.80;57.80
11597;DHT22;5854;48.072;16.286;2022-08-19T20:32:00;24.90;59.10
11597;DHT22;5854;48.072;16.286;2022-08-19T20:34:27;24.80;57.60
11597;DHT22;5854;48.072;16.286;2022-08-19T20:36:55;24.90;60.90
11597;DHT22;5854;48.072;16.286;2022-08-19T20:39:23;24.80;60.50
11597;DHT22;5854;48.072;16.286;2022-08-19T20:41:50;24.70;59.00
11597;DHT22;5854;48.072;16.286;2022-08-19T20:44:19;24.90;57.30
11597;DHT22;5854;48.072;16.286;2022-08-19T20:46:46;24.90;60.40
11597;DHT22;5854;48.072;16.286;2022-08-19T20:49:14;24.80;59.00
11597;DHT22;5854;48.072;16.286;2022-08-19T20:51:41;24.80;60.10
11597;DHT22;5854;48.072;16.286;2022-08-19T20:54:11;24.70;61.20
11597;DHT22;5854;48.072;16.286;2022-08-19T20:56:39;24.70;57.20
11597;DHT22;5854;48.072;16.286;2022-08-19T20:59:06;24.70;63.70
11597;DHT22;5854;48.072;16.286;2022-08-19T21:01:36;24.60;65.30
11597;DHT22;5854;48.072;16.286;2022-08-19T21:04:06;24.50;58.30
11597;DHT22;5854;48.072;16.286;2022-08-19T21:06:34;24.60;58.60
11597;DHT22;5854;48.072;16.286;2022-08-19T21:09:03;24.60;64.40
11597;DHT22;5854;48.072;16.286;2022-08-19T21:11:30;24.50;60.20
11597;DHT22;5854;48.072;16.286;2022-08-19T21:13:58;24.50;62.10
11597;DHT22;5854;48.072;16.286;2022-08-19T21:16:26;24.50;59.90
11597;DHT22;5854;48.072;16.286;2022-08-19T21:18:55;24.60;59.00
11597;DHT22;5854;48.072;16.286;2022-08-19T21:21:23;24.40;63.50
11597;DHT22;5854;48.072;16.286;2022-08-19T21:23:53;24.30;64.00
11597;DHT22;5854;48.072;16.286;2022-08-19T21:26:20;24.30;62.60
11597;DHT22;5854;48.072;16.286;2022-08-19T21:28:48;24.30;62.90
11597;DHT22;5854;48.072;16.286;2022-08-19T21:31:16;24.20;61.00
11597;DHT22;5854;48.072;16.286;2022-08-19T21:33:43;24.20;59.40
11597;DHT22;5854;48.072;16.286;2022-08-19T21:36:12;24.10;60.70
11597;DHT22;5854;48.072;16.286;2022-08-19T21:38:39;24.00;59.30
11597;DHT22;5854;48.072;16.286;2022-08-19T21:41:06;24.10;59.40